createdAt,value
2024-02-13T00:00:43.010Z,3.60
2024-02-13T00:03:10.913Z,4.00
2024-02-13T00:05:40.481Z,4.50
2024-02-13T00:08:07.831Z,4.20
2024-02-13T00:10:34.566Z,5.60
2024-02-13T00:13:01.063Z,3.50
2024-02-13T00:15:27.542Z,3.00
2024-02-13T00:17:54.076Z,2.40
2024-02-13T00:20:20.950Z,4.50
2024-02-13T00:22:51.057Z,4.50
2024-02-13T00:25:19.567Z,3.10
2024-02-13T00:27:46.377Z,2.20
2024-02-13T00:30:13.711Z,2.90
2024-02-13T00:32:40.499Z,3.30
2024-02-13T00:35:09.998Z,5.90
2024-02-13T00:37:38.077Z,5.40
2024-02-13T00:40:11.169Z,3.10
2024-02-13T00:42:38.035Z,3.50
2024-02-13T00:45:08.570Z,4.20
2024-02-13T00:47:35.701Z,3.40
2024-02-13T00:50:03.010Z,5.10
2024-02-13T00:52:29.867Z,4.40
2024-02-13T00:54:57.500Z,3.90
2024-02-13T00:57:25.423Z,3.40
2024-02-13T00:59:52.277Z,3.50
2024-02-13T01:02:19.098Z,3.40
2024-02-13T01:04:45.800Z,3.30
2024-02-13T01:07:12.338Z,2.90
2024-02-13T01:09:38.828Z,4.60
2024-02-13T01:12:05.421Z,3.20
2024-02-13T01:14:32.510Z,4.90
2024-02-13T01:16:59.194Z,3.60
2024-02-13T01:19:25.835Z,3.90
2024-02-13T01:21:52.393Z,4.10
2024-02-13T01:24:18.854Z,2.90
2024-02-13T01:26:46.137Z,2.90
2024-02-13T01:31:39.822Z,6.10
2024-02-13T01:36:40.776Z,2.40
2024-02-13T01:39:07.300Z,4.60
2024-02-13T01:41:33.878Z,5.10
2024-02-13T01:44:01.115Z,4.00
2024-02-13T01:46:29.869Z,5.90
2024-02-13T01:49:00.004Z,5.30
2024-02-13T01:51:30.761Z,4.60
2024-02-13T01:54:02.915Z,3.10
2024-02-13T01:56:32.108Z,3.50
2024-02-13T01:58:58.877Z,3.00
2024-02-13T02:01:28.625Z,3.80
2024-02-13T02:03:59.853Z,6.20
2024-02-13T02:06:27.171Z,4.40
2024-02-13T02:08:54.419Z,5.10
2024-02-13T02:11:21.698Z,5.70
2024-02-13T02:13:48.438Z,2.90
2024-02-13T02:16:14.895Z,4.20
2024-02-13T02:18:42.373Z,5.80
2024-02-13T02:21:09.249Z,4.30
2024-02-13T02:23:36.257Z,4.60
2024-02-13T02:26:04.198Z,3.30
2024-02-13T02:28:31.086Z,2.40
2024-02-13T02:30:57.544Z,1.70
2024-02-13T02:33:24.207Z,1.80
2024-02-13T02:35:51.000Z,3.60
2024-02-13T02:38:17.854Z,2.90
2024-02-13T02:40:45.165Z,3.60
2024-02-13T02:43:11.664Z,3.20
2024-02-13T02:45:38.227Z,4.30
2024-02-13T02:48:05.082Z,5.90
2024-02-13T02:50:31.626Z,3.10
2024-02-13T02:52:59.061Z,4.70
2024-02-13T02:55:25.555Z,4.50
2024-02-13T02:57:54.372Z,2.90
2024-02-13T03:00:22.209Z,4.90
2024-02-13T03:05:17.912Z,4.20
2024-02-13T03:07:47.739Z,2.60
2024-02-13T03:10:15.106Z,3.70
2024-02-13T03:12:42.135Z,3.20
2024-02-13T03:15:09.562Z,6.60
2024-02-13T03:17:40.253Z,3.00
2024-02-13T03:20:12.070Z,5.40
2024-02-13T03:22:39.603Z,5.40
2024-02-13T03:25:06.825Z,3.80
2024-02-13T03:27:33.416Z,4.60
2024-02-13T03:29:59.865Z,4.30
2024-02-13T03:32:27.225Z,8.80
2024-02-13T03:37:21.278Z,4.40
2024-02-13T03:39:48.664Z,10.80
2024-02-13T03:42:17.144Z,3.90
2024-02-13T03:44:43.987Z,5.20
2024-02-13T03:47:10.516Z,2.60
2024-02-13T03:49:37.177Z,3.60
2024-02-13T03:52:04.442Z,4.30
2024-02-13T03:54:31.020Z,5.90
2024-02-13T03:56:58.221Z,4.10
2024-02-13T03:59:24.805Z,3.20
2024-02-13T04:01:51.440Z,4.50
2024-02-13T04:04:17.876Z,3.30
2024-02-13T04:06:44.376Z,3.20
2024-02-13T04:09:11.778Z,3.50
2024-02-13T04:11:38.566Z,4.70
2024-02-13T04:14:05.071Z,4.40
2024-02-13T04:16:31.847Z,6.00
2024-02-13T04:19:00.302Z,4.60
2024-02-13T04:21:27.036Z,5.10
2024-02-13T04:23:53.695Z,6.00
2024-02-13T04:26:30.533Z,3.90
2024-02-13T04:29:03.269Z,6.60
2024-02-13T04:31:29.922Z,4.10
2024-02-13T04:33:56.947Z,2.90
2024-02-13T04:36:24.322Z,4.10
2024-02-13T04:38:51.093Z,5.30
2024-02-13T04:41:19.601Z,3.50
2024-02-13T04:43:46.388Z,4.20
2024-02-13T04:46:13.202Z,5.40
2024-02-13T04:48:40.230Z,4.10
2024-02-13T04:51:07.069Z,2.20
2024-02-13T04:53:34.071Z,1.70
2024-02-13T04:56:00.834Z,4.50
2024-02-13T04:58:34.131Z,4.20
2024-02-13T05:01:06.379Z,4.10
2024-02-13T05:03:48.752Z,2.90
2024-02-13T05:06:34.617Z,3.30
2024-02-13T05:09:01.238Z,4.10
2024-02-13T05:11:27.686Z,4.40
2024-02-13T05:13:56.961Z,4.40
2024-02-13T05:16:28.062Z,4.50
2024-02-13T05:18:55.507Z,4.40
2024-02-13T05:23:50.286Z,4.60
2024-02-13T05:26:21.523Z,4.70
2024-02-13T05:28:51.683Z,3.80
2024-02-13T05:31:20.320Z,3.80
2024-02-13T05:33:47.140Z,3.00
2024-02-13T05:36:13.796Z,4.00
2024-02-13T05:38:49.467Z,4.00
2024-02-13T05:41:16.879Z,3.10
2024-02-13T05:43:44.029Z,4.10
2024-02-13T05:46:10.707Z,4.40
2024-02-13T05:48:37.428Z,3.80
2024-02-13T05:51:10.297Z,3.10
2024-02-13T05:53:36.860Z,1.70
2024-02-13T05:56:05.338Z,2.00
2024-02-13T05:58:32.724Z,2.80
2024-02-13T06:00:59.493Z,2.20
2024-02-13T06:03:26.532Z,2.80
2024-02-13T06:05:55.603Z,3.90
2024-02-13T06:08:22.893Z,6.50
2024-02-13T06:10:49.484Z,4.00
2024-02-13T06:13:16.003Z,1.80
2024-02-13T06:15:42.701Z,4.80
2024-02-13T06:18:09.795Z,2.00
2024-02-13T06:20:37.240Z,4.30
2024-02-13T06:25:31.663Z,8.50
2024-02-13T06:27:58.332Z,11.30
2024-02-13T06:30:24.978Z,25.80
2024-02-13T06:32:53.242Z,28.20
2024-02-13T06:35:20.062Z,44.00
2024-02-13T06:37:47.723Z,54.00
2024-02-13T06:40:14.820Z,49.60
2024-02-13T06:42:41.835Z,29.10
2024-02-13T06:45:11.567Z,19.00
2024-02-13T06:47:39.084Z,14.10
2024-02-13T06:50:13.313Z,15.70
2024-02-13T06:52:41.575Z,18.40
2024-02-13T07:00:12.852Z,9.60
2024-02-13T07:02:40.266Z,11.60
2024-02-13T07:05:07.523Z,11.40
2024-02-13T07:07:42.243Z,8.00
2024-02-13T07:10:14.172Z,9.60
2024-02-13T07:12:40.786Z,5.30
2024-02-13T07:15:08.388Z,8.00
2024-02-13T07:17:45.193Z,7.40
2024-02-13T07:20:20.326Z,5.70
2024-02-13T07:22:47.374Z,7.00
2024-02-13T07:25:16.458Z,7.90
2024-02-13T07:27:43.448Z,6.60
2024-02-13T07:30:12.785Z,5.70
2024-02-13T07:32:41.050Z,7.80
2024-02-13T07:35:08.214Z,7.30
2024-02-13T07:37:34.819Z,7.00
2024-02-13T07:40:02.573Z,6.50
2024-02-13T07:42:30.259Z,6.40
2024-02-13T07:44:58.433Z,5.70
2024-02-13T07:47:28.901Z,8.40
2024-02-13T07:49:56.174Z,6.20
2024-02-13T07:52:22.890Z,7.40
2024-02-13T07:54:49.714Z,6.30
2024-02-13T07:57:17.463Z,8.20
2024-02-13T07:59:44.860Z,7.20
2024-02-13T08:02:12.100Z,8.50
2024-02-13T08:04:38.847Z,8.20
2024-02-13T08:07:05.652Z,6.30
2024-02-13T08:09:35.340Z,8.80
2024-02-13T08:12:04.323Z,7.80
2024-02-13T08:14:31.994Z,8.80
2024-02-13T08:16:59.892Z,6.00
2024-02-13T08:19:27.619Z,6.00
2024-02-13T08:21:54.545Z,6.30
2024-02-13T08:24:22.340Z,5.30
2024-02-13T08:26:50.111Z,4.70
2024-02-13T08:29:17.237Z,4.30
2024-02-13T08:31:44.176Z,6.50
2024-02-13T08:34:11.440Z,3.70
2024-02-13T08:36:40.666Z,3.20
2024-02-13T08:39:07.581Z,5.70
2024-02-13T08:41:34.498Z,4.50
2024-02-13T08:44:01.493Z,4.50
2024-02-13T08:46:28.219Z,5.30
2024-02-13T08:48:55.172Z,3.40
2024-02-13T08:51:28.014Z,3.70
2024-02-13T08:53:55.046Z,2.80
2024-02-13T08:56:22.728Z,4.80
2024-02-13T08:58:53.409Z,5.30
2024-02-13T09:01:21.873Z,2.60
2024-02-13T09:03:49.793Z,3.60
2024-02-13T09:06:17.987Z,6.10
2024-02-13T09:08:46.124Z,3.40
2024-02-13T09:11:16.410Z,5.90
2024-02-13T09:13:43.516Z,4.90
2024-02-13T09:16:13.768Z,4.80
2024-02-13T09:18:42.357Z,5.60
2024-02-13T09:21:09.575Z,4.30
2024-02-13T09:23:36.591Z,6.40
2024-02-13T09:26:03.529Z,4.70
2024-02-13T09:28:30.134Z,6.30
2024-02-13T09:30:56.661Z,5.50
2024-02-13T09:33:24.666Z,5.70
2024-02-13T09:35:52.131Z,4.90
2024-02-13T09:38:19.384Z,5.30
2024-02-13T09:40:50.020Z,4.60
2024-02-13T09:43:17.186Z,4.70
2024-02-13T09:45:45.869Z,5.80
2024-02-13T09:48:24.641Z,4.90
2024-02-13T09:50:52.662Z,5.40
2024-02-13T09:53:29.154Z,5.40
2024-02-13T09:55:59.945Z,5.00
2024-02-13T09:58:27.449Z,5.00
2024-02-13T10:00:58.601Z,3.40
2024-02-13T10:03:28.644Z,5.00
2024-02-13T10:05:55.816Z,5.70
2024-02-13T10:11:07.365Z,5.40
2024-02-13T10:13:43.772Z,4.10
2024-02-13T10:16:27.640Z,5.10
2024-02-13T10:18:55.926Z,6.30
2024-02-13T10:21:27.933Z,11.00
2024-02-13T10:24:15.610Z,5.20
2024-02-13T10:26:43.016Z,5.90
2024-02-13T10:29:10.220Z,4.90
2024-02-13T10:31:38.370Z,5.00
2024-02-13T10:34:08.801Z,6.80
2024-02-13T10:36:37.524Z,4.80
2024-02-13T10:39:10.017Z,6.00
2024-02-13T10:41:42.121Z,7.30
2024-02-13T10:44:14.497Z,5.30
2024-02-13T10:46:43.715Z,6.20
2024-02-13T10:49:34.950Z,5.30
2024-02-13T10:52:02.352Z,5.50
2024-02-13T10:54:30.468Z,7.70
2024-02-13T10:56:59.030Z,5.20
2024-02-13T10:59:29.532Z,4.40
2024-02-13T11:02:00.770Z,6.20
2024-02-13T11:04:28.935Z,5.10
2024-02-13T11:06:56.242Z,6.70
2024-02-13T11:09:23.001Z,4.90
2024-02-13T11:11:49.628Z,6.90
2024-02-13T11:14:23.986Z,6.10
2024-02-13T11:17:02.220Z,5.10
2024-02-13T11:19:49.751Z,5.70
2024-02-13T11:22:17.420Z,4.40
2024-02-13T11:24:54.144Z,5.90
2024-02-13T11:27:29.436Z,5.00
2024-02-13T11:30:04.245Z,7.20
2024-02-13T11:32:37.393Z,5.00
2024-02-13T11:35:10.635Z,3.70
2024-02-13T11:37:38.268Z,5.80
2024-02-13T11:40:06.671Z,4.70
2024-02-13T11:42:34.954Z,4.80
2024-02-13T11:45:02.993Z,3.20
2024-02-13T11:47:30.171Z,3.30
2024-02-13T11:49:57.333Z,3.20
2024-02-13T11:52:24.716Z,3.90
2024-02-13T11:54:52.347Z,3.60
2024-02-13T11:57:21.001Z,4.70
2024-02-13T12:00:06.557Z,5.50
2024-02-13T12:02:34.631Z,3.70
2024-02-13T12:05:01.535Z,3.90
2024-02-13T12:07:29.162Z,2.70
2024-02-13T12:09:56.294Z,3.20
2024-02-13T12:12:25.604Z,2.80
2024-02-13T12:14:54.486Z,3.90
2024-02-13T12:17:22.124Z,2.80
2024-02-13T12:19:49.475Z,3.30
2024-02-13T12:22:18.037Z,2.80
2024-02-13T12:24:46.874Z,4.30
2024-02-13T12:27:17.924Z,3.50
2024-02-13T12:29:45.059Z,3.80
2024-02-13T12:32:19.109Z,2.90
2024-02-13T12:34:51.853Z,2.00
2024-02-13T12:37:21.176Z,3.80
2024-02-13T12:39:48.902Z,1.90
2024-02-13T12:42:18.934Z,3.00
2024-02-13T12:44:46.239Z,2.50
2024-02-13T12:47:14.829Z,3.90
2024-02-13T12:49:44.890Z,3.50
2024-02-13T12:52:15.018Z,2.40
2024-02-13T12:54:41.740Z,2.40
2024-02-13T12:59:39.438Z,4.50
2024-02-13T13:02:10.214Z,2.90
2024-02-13T13:04:37.250Z,2.80
2024-02-13T13:07:04.959Z,1.80
2024-02-13T13:09:32.459Z,2.90
2024-02-13T13:12:00.368Z,4.50
2024-02-13T13:14:29.509Z,2.60
2024-02-13T13:16:57.652Z,2.50
2024-02-13T13:19:28.620Z,3.70
2024-02-13T13:21:57.234Z,3.70
2024-02-13T13:24:24.346Z,4.00
2024-02-13T13:26:51.723Z,2.20
2024-02-13T13:29:18.855Z,2.60
2024-02-13T13:31:48.840Z,2.90
2024-02-13T13:34:24.434Z,3.90
2024-02-13T13:36:52.360Z,2.40
2024-02-13T13:39:18.966Z,2.50
2024-02-13T13:41:46.095Z,1.90
2024-02-13T13:44:15.029Z,3.30
2024-02-13T13:46:42.491Z,5.10
2024-02-13T13:49:10.801Z,2.50
2024-02-13T13:51:40.609Z,2.10
2024-02-13T13:54:07.691Z,1.80
2024-02-13T13:56:34.567Z,1.70
2024-02-13T13:59:01.194Z,2.30
2024-02-13T14:01:27.988Z,2.80
2024-02-13T14:03:56.714Z,2.90
2024-02-13T14:06:23.696Z,1.60
2024-02-13T14:08:50.337Z,2.70
2024-02-13T14:11:18.667Z,1.70
2024-02-13T14:13:45.883Z,2.20
2024-02-13T14:16:12.585Z,2.50
2024-02-13T14:18:39.705Z,2.60
2024-02-13T14:21:06.765Z,1.70
2024-02-13T14:23:33.295Z,2.20
2024-02-13T14:25:59.829Z,4.60
2024-02-13T14:28:26.290Z,1.60
2024-02-13T14:30:53.678Z,2.70
2024-02-13T14:33:21.704Z,1.80
2024-02-13T14:35:48.721Z,6.00
2024-02-13T14:38:16.912Z,7.00
2024-02-13T14:40:44.657Z,3.70
2024-02-13T14:43:14.490Z,2.10
2024-02-13T14:45:42.175Z,3.20
2024-02-13T14:48:15.016Z,1.90
2024-02-13T14:50:42.235Z,1.80
2024-02-13T14:53:10.081Z,2.90
2024-02-13T14:55:36.907Z,3.00
2024-02-13T14:58:14.575Z,2.30
2024-02-13T15:00:54.171Z,2.70
2024-02-13T15:03:26.021Z,2.20
2024-02-13T15:05:54.215Z,3.20
2024-02-13T15:08:21.392Z,2.50
2024-02-13T15:10:49.934Z,1.90
2024-02-13T15:13:17.324Z,2.20
2024-02-13T15:15:50.094Z,2.10
2024-02-13T15:18:18.053Z,1.10
2024-02-13T15:20:45.076Z,1.60
2024-02-13T15:23:13.838Z,2.00
2024-02-13T15:25:41.632Z,2.00
2024-02-13T15:28:08.542Z,1.10
2024-02-13T15:30:38.664Z,1.70
2024-02-13T15:33:06.555Z,1.20
2024-02-13T15:38:27.215Z,0.60
2024-02-13T15:41:12.549Z,3.00
2024-02-13T15:43:57.896Z,1.40
2024-02-13T15:46:43.080Z,1.20
2024-02-13T15:49:12.963Z,2.00
2024-02-13T15:51:41.317Z,3.50
2024-02-13T15:54:10.222Z,1.70
2024-02-13T15:56:37.647Z,0.80
2024-02-13T15:59:04.896Z,2.40
2024-02-13T16:01:32.297Z,1.10
2024-02-13T16:04:03.022Z,2.10
2024-02-13T16:06:29.839Z,1.70
2024-02-13T16:08:57.235Z,2.00
2024-02-13T16:11:24.514Z,1.30
2024-02-13T16:16:19.771Z,1.10
2024-02-13T16:18:49.308Z,2.30
2024-02-13T16:21:16.178Z,1.60
2024-02-13T16:23:42.924Z,2.00
2024-02-13T16:26:11.725Z,10.40
2024-02-13T16:28:38.931Z,3.50
2024-02-13T16:33:35.299Z,2.80
2024-02-13T16:36:02.221Z,5.00
2024-02-13T16:38:29.471Z,0.90
2024-02-13T16:40:55.989Z,1.30
2024-02-13T16:43:22.995Z,1.80
2024-02-13T16:45:49.891Z,1.10
2024-02-13T16:48:18.001Z,4.90
2024-02-13T16:50:44.829Z,20.70
2024-02-13T16:53:11.333Z,31.20
2024-02-13T16:55:37.807Z,17.00
2024-02-13T16:58:06.360Z,11.20
2024-02-13T17:00:33.425Z,7.30
2024-02-13T17:03:00.826Z,2.80
2024-02-13T17:05:27.797Z,3.60
2024-02-13T17:07:54.701Z,4.20
2024-02-13T17:10:21.732Z,12.90
2024-02-13T17:12:48.342Z,5.50
2024-02-13T17:15:15.043Z,3.80
2024-02-13T17:17:46.221Z,4.20
2024-02-13T17:20:14.388Z,3.30
2024-02-13T17:22:42.592Z,5.10
2024-02-13T17:25:11.396Z,3.10
2024-02-13T17:27:39.126Z,3.80
2024-02-13T17:30:06.668Z,5.80
2024-02-13T17:32:33.651Z,2.50
2024-02-13T17:35:00.515Z,2.20
2024-02-13T17:37:27.231Z,1.80
2024-02-13T17:39:53.784Z,2.30
2024-02-13T17:42:20.282Z,3.20
2024-02-13T17:44:46.941Z,3.50
2024-02-13T17:47:13.658Z,1.20
2024-02-13T17:49:41.412Z,2.20
2024-02-13T17:52:10.267Z,2.00
2024-02-13T17:54:37.221Z,1.40
2024-02-13T17:57:04.668Z,3.00
2024-02-13T17:59:31.600Z,1.40
2024-02-13T18:01:58.368Z,1.90
2024-02-13T18:04:24.928Z,2.50
2024-02-13T18:06:52.301Z,3.00
2024-02-13T18:09:19.114Z,2.80
2024-02-13T18:11:45.800Z,1.70
2024-02-13T18:14:12.548Z,3.70
2024-02-13T18:16:40.616Z,2.10
2024-02-13T18:19:08.155Z,0.90
2024-02-13T18:21:34.988Z,2.10
2024-02-13T18:24:03.659Z,1.50
2024-02-13T18:26:30.412Z,3.50
2024-02-13T18:28:57.060Z,2.70
2024-02-13T18:31:25.136Z,4.20
2024-02-13T18:33:52.208Z,1.10
2024-02-13T18:36:19.670Z,1.70
2024-02-13T18:38:46.813Z,2.80
2024-02-13T18:41:13.314Z,3.40
2024-02-13T18:43:39.793Z,2.90
2024-02-13T18:46:07.735Z,1.10
2024-02-13T18:48:34.391Z,2.70
2024-02-13T18:51:02.385Z,2.00
2024-02-13T18:53:32.337Z,1.40
2024-02-13T18:55:58.924Z,2.30
2024-02-13T18:58:25.755Z,1.80
2024-02-13T19:00:52.548Z,2.90
2024-02-13T19:03:21.416Z,1.80
2024-02-13T19:05:52.076Z,1.80
2024-02-13T19:08:21.580Z,0.60
2024-02-13T19:10:49.797Z,1.50
2024-02-13T19:13:16.848Z,1.20
2024-02-13T19:15:43.420Z,0.90
2024-02-13T19:18:14.032Z,2.90
2024-02-13T19:20:40.731Z,1.70
2024-02-13T19:23:07.951Z,1.40
2024-02-13T19:25:34.560Z,2.80
2024-02-13T19:28:01.326Z,0.90
2024-02-13T19:30:29.486Z,1.00
2024-02-13T19:32:56.730Z,1.60
2024-02-13T19:35:23.377Z,0.70
2024-02-13T19:37:52.083Z,0.40
2024-02-13T19:40:19.991Z,1.90
2024-02-13T19:42:47.132Z,1.70
2024-02-13T19:45:14.544Z,2.70
2024-02-13T19:47:41.789Z,1.90
2024-02-13T19:50:08.782Z,4.50
2024-02-13T19:52:37.343Z,2.20
2024-02-13T19:55:06.967Z,4.50
2024-02-13T19:57:35.007Z,2.60
2024-02-13T20:00:04.215Z,3.90
2024-02-13T20:02:32.407Z,1.90
2024-02-13T20:04:59.065Z,2.90
2024-02-13T20:07:25.679Z,1.90
2024-02-13T20:09:52.539Z,1.60
2024-02-13T20:12:21.371Z,2.00
2024-02-13T20:14:48.341Z,2.90
2024-02-13T20:17:16.114Z,3.00
2024-02-13T20:19:43.128Z,2.40
2024-02-13T20:22:09.692Z,1.60
2024-02-13T20:24:38.806Z,3.70
2024-02-13T20:27:05.472Z,2.70
2024-02-13T20:29:32.284Z,2.80
2024-02-13T20:31:59.731Z,3.70
2024-02-13T20:34:28.492Z,4.10
2024-02-13T20:36:58.886Z,7.10
2024-02-13T20:39:25.422Z,13.80
2024-02-13T20:41:52.273Z,13.80
2024-02-13T20:44:18.805Z,11.00
2024-02-13T20:46:45.471Z,17.70
2024-02-13T20:49:13.957Z,33.00
2024-02-13T20:51:43.692Z,39.20
2024-02-13T20:54:13.607Z,27.10
2024-02-13T20:56:40.891Z,22.00
2024-02-13T20:59:09.685Z,19.30
2024-02-13T21:01:39.464Z,16.60
2024-02-13T21:04:08.368Z,11.30
2024-02-13T21:06:36.328Z,13.10
2024-02-13T21:09:03.692Z,10.30
2024-02-13T21:11:32.140Z,8.70
2024-02-13T21:14:00.084Z,4.00
2024-02-13T21:16:34.483Z,4.50
2024-02-13T21:19:02.415Z,6.80
2024-02-13T21:21:47.977Z,4.60
2024-02-13T21:24:14.705Z,4.10
2024-02-13T21:26:41.608Z,4.60
2024-02-13T21:29:08.967Z,4.20
2024-02-13T21:31:36.252Z,4.00
2024-02-13T21:34:07.357Z,5.40
2024-02-13T21:36:37.721Z,4.80
2024-02-13T21:39:09.174Z,3.30
2024-02-13T21:41:37.064Z,4.00
2024-02-13T21:44:04.703Z,2.90
2024-02-13T21:48:58.605Z,4.30
2024-02-13T21:51:25.630Z,4.50
2024-02-13T21:53:52.182Z,4.60
2024-02-13T21:56:19.885Z,6.10
2024-02-13T21:58:46.673Z,6.30
2024-02-13T22:01:13.593Z,6.40
2024-02-13T22:03:41.798Z,9.20
2024-02-13T22:06:08.544Z,7.70
2024-02-13T22:08:36.299Z,6.70
2024-02-13T22:11:03.068Z,6.60
2024-02-13T22:13:29.754Z,4.30
2024-02-13T22:15:56.322Z,4.90
2024-02-13T22:18:25.835Z,6.00
2024-02-13T22:20:53.188Z,4.50
2024-02-13T22:23:19.790Z,4.80
2024-02-13T22:25:46.297Z,6.40
2024-02-13T22:28:13.937Z,3.20
2024-02-13T22:30:40.415Z,5.30
2024-02-13T22:33:08.370Z,4.20
2024-02-13T22:35:35.597Z,3.60
2024-02-13T22:38:04.441Z,4.00
2024-02-13T22:40:30.916Z,5.10
2024-02-13T22:42:57.364Z,5.40
2024-02-13T22:45:23.818Z,5.30
2024-02-13T22:48:02.095Z,4.10
2024-02-13T22:50:29.880Z,3.70
2024-02-13T22:55:28.098Z,3.40
2024-02-13T22:57:54.619Z,3.70
2024-02-13T23:00:42.084Z,2.40
2024-02-13T23:03:09.368Z,8.60
2024-02-13T23:05:36.640Z,3.30
2024-02-13T23:08:07.986Z,4.10
2024-02-13T23:10:34.980Z,2.20
2024-02-13T23:13:01.463Z,5.20
2024-02-13T23:15:28.110Z,4.30
2024-02-13T23:17:54.863Z,3.80
2024-02-13T23:20:22.563Z,4.40
2024-02-13T23:22:51.370Z,4.50
2024-02-13T23:25:18.644Z,3.40
2024-02-13T23:27:45.081Z,6.20
2024-02-13T23:30:12.553Z,4.50
2024-02-13T23:35:07.011Z,4.70
2024-02-13T23:37:35.269Z,2.80
2024-02-13T23:40:02.067Z,4.90
2024-02-13T23:42:28.699Z,3.10
2024-02-13T23:44:58.437Z,4.30
2024-02-13T23:47:25.162Z,3.50
2024-02-13T23:49:51.837Z,3.10
2024-02-13T23:52:18.458Z,3.40
2024-02-13T23:54:45.293Z,6.10
2024-02-13T23:57:12.066Z,4.40
2024-02-13T23:59:38.750Z,3.00
